Map

Track Data

SID SEASON NUMBER BASIN SUBBASIN NAME ISO_TIME NATURE LAT LON WMO_WIND WMO_PRES WMO_AGENCY TRACK_TYPE DIST2LAND LANDFALL IFLAG USA_AGENCY USA_ATCF_ID USA_LAT USA_LON USA_RECORD USA_STATUS USA_WIND USA_PRES USA_SSHS USA_R34_NE USA_R34_SE USA_R34_SW USA_R34_NW USA_R50_NE USA_R50_SE USA_R50_SW USA_R50_NW USA_R64_NE USA_R64_SE USA_R64_SW USA_R64_NW USA_POCI USA_ROCI USA_RMW USA_EYE TOKYO_LAT TOKYO_LON TOKYO_GRADE TOKYO_WIND TOKYO_PRES TOKYO_R50_DIR TOKYO_R50_LONG TOKYO_R50_SHORT TOKYO_R30_DIR TOKYO_R30_LONG TOKYO_R30_SHORT TOKYO_LAND CMA_LAT CMA_LON CMA_CAT CMA_WIND CMA_PRES HKO_LAT HKO_LON HKO_CAT HKO_WIND HKO_PRES NEWDELHI_LAT NEWDELHI_LON NEWDELHI_GRADE NEWDELHI_WIND NEWDELHI_PRES NEWDELHI_CI NEWDELHI_DP NEWDELHI_POCI REUNION_LAT REUNION_LON REUNION_TYPE REUNION_WIND REUNION_PRES REUNION_TNUM REUNION_CI REUNION_RMW REUNION_R34_NE REUNION_R34_SE REUNION_R34_SW REUNION_R34_NW REUNION_R50_NE REUNION_R50_SE REUNION_R50_SW REUNION_R50_NW REUNION_R64_NE REUNION_R64_SE REUNION_R64_SW REUNION_R64_NW BOM_LAT BOM_LON BOM_TYPE BOM_WIND BOM_PRES BOM_TNUM BOM_CI BOM_RMW BOM_R34_NE BOM_R34_SE BOM_R34_SW BOM_R34_NW BOM_R50_NE BOM_R50_SE BOM_R50_SW BOM_R50_NW BOM_R64_NE BOM_R64_SE BOM_R64_SW BOM_R64_NW BOM_ROCI BOM_POCI BOM_EYE BOM_POS_METHOD BOM_PRES_METHOD NADI_LAT NADI_LON NADI_CAT NADI_WIND NADI_PRES WELLINGTON_LAT WELLINGTON_LON WELLINGTON_WIND WELLINGTON_PRES DS824_LAT DS824_LON DS824_STAGE DS824_WIND DS824_PRES TD9636_LAT TD9636_LON TD9636_STAGE TD9636_WIND TD9636_PRES TD9635_LAT TD9635_LON TD9635_WIND TD9635_PRES TD9635_ROCI NEUMANN_LAT NEUMANN_LON NEUMANN_CLASS NEUMANN_WIND NEUMANN_PRES MLC_LAT MLC_LON MLC_CLASS MLC_WIND MLC_PRES USA_GUST BOM_GUST BOM_GUST_PER REUNION_GUST REUNION_GUST_PER USA_SEAHGT USA_SEARAD_NE USA_SEARAD_SE USA_SEARAD_SW USA_SEARAD_NW STORM_SPEED STORM_DIR
1958073S12060 1958 22 SI MM NOT_NAMED 1958-03-14 06:00:00 TS -12.4000 59.9000 main 893 882 O________OO___ jtwc_sh SH241958 -12.4000 59.9000 -1 -12.4000 59.9000 TC 25 -12.4000 59.9000 7 10 277
1958073S12060 1958 22 SI MM NOT_NAMED 1958-03-14 09:00:00 TS -12.3431 59.3968 main 891 882 P________PP___ SH241958 -12.3252 59.3899 -1 -12.3252 59.3899 TC 25 -12.3788 59.4105 7 10 274
1958073S12060 1958 22 SI MM NOT_NAMED 1958-03-14 12:00:00 TS -12.3252 58.9090 main 882 865 O________OP___ jtwc_sh SH241958 -12.3000 58.9000 -1 -12.3000 58.9000 TC 25 -12.3757 58.9269 7 9 268
1958073S12060 1958 22 SI MM NOT_NAMED 1958-03-14 15:00:00 TS -12.3782 58.4466 main 865 851 P________PP___ SH241958 -12.3624 58.4425 -1 -12.3624 58.4425 TC 25 -12.4097 58.4548 7 9 259
1958073S12060 1958 22 SI MM NOT_NAMED 1958-03-14 18:00:00 TS -12.5000 58.0000 main 851 816 O________OO___ jtwc_sh SH241958 -12.5000 58.0000 -1 -12.5000 58.0000 TC 25 -12.5000 58.0000 7 9 251
1958073S12060 1958 22 SI MM NOT_NAMED 1958-03-14 21:00:00 TS -12.6759 57.5367 main 805 757 P________PP___ SH241958 -12.6851 57.5201 -1 -12.6851 57.5201 TC 25 -12.6577 57.5699 7 9 246
1958073S12060 1958 22 SI MM NOT_NAMED 1958-03-15 00:00:00 TS -12.8875 57.1269 main 757 719 O________OP___ jtwc_sh SH241958 -12.9000 57.1000 -1 -12.9000 57.1000 TC 25 -12.8624 57.1807 7 8 239
1958073S12060 1958 22 SI MM NOT_NAMED 1958-03-15 03:00:00 TS -13.1003 56.8153 main 719 680 P________PP___ SH241958 -13.1074 56.7975 -1 -13.1074 56.7975 TC 25 -13.0859 56.8511 7 8 235
1958073S12060 1958 22 SI MM NOT_NAMED 1958-03-15 06:00:00 TS -13.3385 56.4769 reunion main 680 653 O____O___OO___ jtwc_sh SH241958 -13.3000 56.6000 -1 -13.8000 55.0000 99 9.90000 -13.3000 56.6000 TC 25 -13.3000 56.6000 1 7 232
1958073S12060 1958 22 SI MM NOT_NAMED 1958-03-15 09:00:00 TS -13.5308 56.2534 main 653 626 P____P___PP___ SH241958 -13.4575 56.4699 -1 -13.9414 55.0106 99 -13.4575 56.4699 TC 25 -13.4722 56.4416 1 5 224
1958073S12060 1958 22 SI MM NOT_NAMED 1958-03-15 12:00:00 TS -13.7042 56.1133 main 626 609 O____P___OP___ jtwc_sh SH241958 -13.6000 56.4000 -1 -14.0812 55.0203 99 -13.6000 56.4000 TC 25 -13.6297 56.3596 1 4 214
1958073S12060 1958 22 SI MM NOT_NAMED 1958-03-15 15:00:00 TS -13.8801 56.0089 main 609 607 P____P___PP___ SH241958 -13.7650 56.3425 -1 -14.2179 55.0279 99 -13.7650 56.3425 TC 25 -13.7723 56.3229 1 3 202
1958073S12060 1958 22 SI MM NOT_NAMED 1958-03-15 18:00:00 TS -14.0125 55.9831 main 607 594 O____P___OO___ jtwc_sh SH241958 -13.9000 56.3000 -1 -14.3500 55.0324 99 -13.9000 56.3000 TC 25 -13.9000 56.3000 1 2 196
1958073S12060 1958 22 SI MM NOT_NAMED 1958-03-15 21:00:00 TS -14.0914 55.9469 main 594 591 P____P___PP___ SH241958 -13.9500 56.2500 -1 -14.4757 55.0330 99 -13.9500 56.2500 TC 30 -13.9900 56.2548 1 2 204
1958073S12060 1958 22 SI MM NOT_NAMED 1958-03-16 00:00:00 TS -14.1659 55.9108 main 591 589 O____P___OP___ jtwc_sh SH241958 -14.0000 56.2000 -1 -14.5937 55.0284 99 -14.0000 56.2000 TC 35 -14.0699 56.2148 1 2 200
1958073S12060 1958 22 SI MM NOT_NAMED 1958-03-16 03:00:00 TS -14.2768 55.8750 main 589 577 P____P___PP___ SH241958 -14.1200 56.1575 -1 -14.7023 55.0178 99 -14.1200 56.1575 TC 35 -14.1650 56.1673 1 3 197
1958073S12060 1958 22 SI MM NOT_NAMED 1958-03-16 06:00:00 TS -14.4250 55.8250 reunion main 577 573 O____O___OO___ jtwc_sh SH241958 -14.3000 56.1000 -1 -14.8000 55.0000 99 9.90000 -14.3000 56.1000 TC 35 -14.3000 56.1000 2 4 199
1958073S12060 1958 22 SI MM NOT_NAMED 1958-03-16 09:00:00 TS -14.6158 55.7503 main 573 560 P____P___PP___ SH241958 -14.5350 56.0150 -1 -14.8863 54.9745 99 -14.5350 56.0150 TC 35 -14.5069 55.9966 2 4 203
1958073S12060 1958 22 SI MM NOT_NAMED 1958-03-16 12:00:00 TS -14.8302 55.6538 main 560 537 O____P___OP___ jtwc_sh SH241958 -14.8000 55.9000 -1 -14.9657 54.9425 99 -14.8000 55.9000 TC 35 -14.7550 55.8726 2 5 206
1958073S12060 1958 22 SI MM NOT_NAMED 1958-03-16 15:00:00 TS -15.0423 55.5357 main 537 525 P____P___PP___ SH241958 -15.0500 55.7500 -1 -15.0434 54.9054 99 -15.0500 55.7500 TC 35 -15.0257 55.7372 2 5 208
1958073S12060 1958 22 SI MM NOT_NAMED 1958-03-16 18:00:00 TS -15.2563 55.4162 main 525 514 O____P___OO___ jtwc_sh SH241958 -15.3000 55.6000 -1 -15.1251 54.8649 99 -15.3000 55.6000 TC 35 -15.3000 55.6000 2 5 206
1958073S12060 1958 22 SI MM NOT_NAMED 1958-03-16 21:00:00 TS -15.4716 55.3223 main 514 504 P____P___PP___ SH241958 -15.5500 55.4999 -1 -15.2161 54.8226 99 -15.5500 55.4999 TC 35 -15.5703 55.4669 2 5 203
1958073S12060 1958 22 SI MM NOT_NAMED 1958-03-17 00:00:00 TS -15.6899 55.2288 main 504 495 O____P___OP___ jtwc_sh SH241958 -15.8000 55.4000 -1 -15.3219 54.7799 99 -15.8000 55.4000 TC 35 -15.8375 55.3351 2 5 204
1958073S12060 1958 22 SI MM NOT_NAMED 1958-03-17 03:00:00 TS -15.9160 55.1123 main 495 486 P____P___PP___ SH241958 -16.0650 55.2500 -1 -15.4481 54.7386 99 -16.0650 55.2500 TC 50 -16.0859 55.2107 2 5 207
1958073S12060 1958 22 SI MM NOT_NAMED 1958-03-17 06:00:00 TS -16.1250 55.0000 reunion main 488 479 O____O___OO___ jtwc_sh SH241958 -16.3000 55.1000 -1 -15.6000 54.7000 99 9.90000 -16.3000 55.1000 TC 65 -16.3000 55.1000 4 4 207
1958073S12060 1958 22 SI MM NOT_NAMED 1958-03-17 09:00:00 TS -16.2957 54.9104 main 481 473 P____P___PP___ SH241958 -16.4725 54.9850 -1 -15.7809 54.6573 99 -16.4725 54.9850 TC 65 -16.4568 55.0145 4 4 206
1958073S12060 1958 22 SI MM NOT_NAMED 1958-03-17 12:00:00 TS -16.4413 54.8393 main 473 473 O____P___OP___ jtwc_sh SH241958 -16.6000 54.9000 -1 -15.9854 54.6150 99 -16.6000 54.9000 TC 65 -16.5799 54.9422 4 3 203
1958073S12060 1958 22 SI MM NOT_NAMED 1958-03-17 15:00:00 TS -16.5749 54.7873 main 478 471 P____P___PP___ SH241958 -16.7000 54.8500 -1 -16.2116 54.5755 99 -16.7000 54.8500 TC 65 -16.6881 54.8739 4 3 200
1958073S12060 1958 22 SI MM NOT_NAMED 1958-03-17 18:00:00 TS -16.7144 54.7353 main 471 462 O____P___OO___ jtwc_sh SH241958 -16.8000 54.8000 -1 -16.4576 54.5410 99 -16.8000 54.8000 TC 65 -16.8000 54.8000 4 3 203
1958073S12060 1958 22 SI MM NOT_NAMED 1958-03-17 21:00:00 TS -16.8802 54.6560 main 462 442 P____P___PP___ SH241958 -16.9425 54.7075 -1 -16.7214 54.5139 99 -16.9425 54.7075 TC 65 -16.9144 54.6950 4 4 204
1958073S12060 1958 22 SI MM NOT_NAMED 1958-03-18 00:00:00 TS -17.0603 54.5704 main 442 433 O____P___OP___ jtwc_sh SH241958 -17.1000 54.6000 -1 -17.0010 54.4965 99 -17.1000 54.6000 TC 65 -17.0401 54.5850 4 4 204
1958073S12060 1958 22 SI MM NOT_NAMED 1958-03-18 03:00:00 TS -17.2363 54.4896 main 433 413 P____P___PP___ SH241958 -17.2275 54.4925 -1 -17.2945 54.4910 99 -17.2275 54.4925 TC 65 -17.1957 54.4825 4 4 199
1958073S12060 1958 22 SI MM NOT_NAMED 1958-03-18 06:00:00 TS -17.4500 54.4250 reunion main 413 381 O____O___OO___ jtwc_sh SH241958 -17.4000 54.4000 -1 -17.6000 54.5000 99 9.90000 -17.4000 54.4000 TC 65 -17.4000 54.4000 4 5 191
1958073S12060 1958 22 SI MM NOT_NAMED 1958-03-18 09:00:00 TS -17.7265 54.3866 main 381 348 P____P___PP___ SH241958 -17.6700 54.3350 -1 -17.8993 54.5389 99 -17.6700 54.3350 TC 65 -17.6665 54.3373 4 6 185
1958073S12060 1958 22 SI MM NOT_NAMED 1958-03-18 12:00:00 TS -18.0488 54.3729 main 348 305 O____P___OP___ jtwc_sh SH241958 -18.0000 54.3000 -1 -18.2127 54.5938 99 -18.0000 54.3000 TC 65 -17.9825 54.2977 4 7 0
1958073S12060 1958 22 SI MM NOT_NAMED 1958-03-18 15:00:00 TS -18.3889 54.3749 main 305 273 P____P___PP___ SH241958 -18.3425 54.2776 -1 -18.5386 54.6602 99 -18.3425 54.2776 TC 65 -18.3322 54.2843 4 7 176
1958073S12060 1958 22 SI MM NOT_NAMED 1958-03-18 18:00:00 TS -18.7438 54.4083 main 273 228 O____P___OO___ jtwc_sh SH241958 -18.7000 54.3000 -1 -18.8753 54.7333 99 -18.7000 54.3000 TC 65 -18.7000 54.3000 4 7 171
1958073S12060 1958 22 SI MM NOT_NAMED 1958-03-18 21:00:00 TS -19.0887 54.4918 main 228 193 P____P___PP___ SH241958 -19.0425 54.3924 -1 -19.2214 54.8086 99 -19.0425 54.3924 TC 65 -19.0485 54.3740 4 7 167
1958073S12060 1958 22 SI MM NOT_NAMED 1958-03-19 00:00:00 TS -19.4470 54.5882 main 193 148 O____P___OP___ jtwc_sh SH241958 -19.4000 54.5000 -1 -19.5753 54.8813 99 -19.4000 54.5000 TC 65 -19.4126 54.4714 4 8 168
1958073S12060 1958 22 SI MM NOT_NAMED 1958-03-19 03:00:00 TS -19.8289 54.6662 main 148 109 P____P___PP___ SH241958 -19.7925 54.5799 -1 -19.9353 54.9467 99 -19.7925 54.5799 TC 65 -19.7954 54.5582 4 8 172
1958073S12060 1958 22 SI MM NOT_NAMED 1958-03-19 06:00:00 TS -20.2250 54.7000 reunion main 109 76 O____O___OO___ jtwc_sh SH241958 -20.2000 54.6000 -1 -20.3000 55.0000 99 9.90000 -20.2000 54.6000 TC 65 -20.2000 54.6000 4 8 0
1958073S12060 1958 22 SI MM NOT_NAMED 1958-03-19 09:00:00 TS -20.6097 54.6522 main 76 63 P____P___PP___ SH241958 -20.5850 54.5226 -1 -20.6686 55.0053 99 -20.5850 54.5226 TC 65 -20.6000 54.5585 4 8 189
1958073S12060 1958 22 SI MM NOT_NAMED 1958-03-19 12:00:00 TS -21.0174 54.5663 main 63 62 O____P___OP___ jtwc_sh SH241958 -21.0000 54.4000 -1 -21.0445 54.9975 99 -21.0000 54.4000 TC 65 -21.0251 54.4675 4 9 190
1958073S12060 1958 22 SI MM NOT_NAMED 1958-03-19 15:00:00 TS -21.4631 54.4850 main 85 85 P____P___PP___ SH241958 -21.4700 54.3073 -1 -21.4249 54.9825 99 -21.4700 54.3073 TC 65 -21.4876 54.3427 4 10 190
1958073S12060 1958 22 SI MM NOT_NAMED 1958-03-19 18:00:00 TS -21.9518 54.3915 main 121 121 O____P___OO___ jtwc_sh SH241958 -22.0000 54.2000 -1 -21.8072 54.9658 99 -22.0000 54.2000 TC 65 -22.0000 54.2000 4 10 191
1958073S12060 1958 22 SI MM NOT_NAMED 1958-03-19 21:00:00 TS -22.4796 54.2783 main 169 169 P____P___PP___ SH241958 -22.5775 54.0575 -1 -22.1886 54.9534 99 -22.5775 54.0575 TC 65 -22.5748 54.0449 4 11 191
1958073S12060 1958 22 SI MM NOT_NAMED 1958-03-20 00:00:00 TS -23.0410 54.1574 main 221 221 O____P___OP___ jtwc_sh SH241958 -23.2000 53.9000 -1 -22.5663 54.9509 99 -23.2000 53.9000 TC 65 -23.1978 53.8787 4 12 191
1958073S12060 1958 22 SI MM NOT_NAMED 1958-03-20 03:00:00 TS -23.6211 54.0395 main 289 289 P____P___PP___ SH241958 -23.8500 53.7351 -1 -22.9377 54.9645 99 -23.8500 53.7351 TC 65 -23.8468 53.7231 4 12 189
1958073S12060 1958 22 SI MM NOT_NAMED 1958-03-20 06:00:00 TS -24.2000 53.9500 reunion main 350 354 O____O___OO___ jtwc_sh SH241958 -24.5000 53.6000 -1 -23.3000 55.0000 99 9.90000 -24.5000 53.6000 TC 65 -24.5000 53.6000 4 11 186
1958073S12060 1958 22 SI MM NOT_NAMED 1958-03-20 09:00:00 TS -24.7389 53.9049 main 406 406 P____P___PP___ SH241958 -25.1000 53.5273 -1 -23.6512 55.0619 99 -25.1000 53.5273 TC 65 -25.1045 53.5031 4 11 182
1958073S12060 1958 22 SI MM NOT_NAMED 1958-03-20 12:00:00 TS -25.2761 53.8987 main 469 469 O____P___OP___ jtwc_sh SH241958 -25.7000 53.5000 -1 -23.9919 55.1486 99 -25.7000 53.5000 TC 65 -25.7123 53.4464 4 11 0
1958073S12060 1958 22 SI MM NOT_NAMED 1958-03-20 15:00:00 TS -25.8257 53.9134 main 521 521 P____P___PP___ SH241958 -26.3200 53.4777 -1 -24.3238 55.2567 99 -26.3200 53.4777 TC 65 -26.3389 53.4413 4 11 177
1958073S12060 1958 22 SI MM NOT_NAMED 1958-03-20 18:00:00 TS -26.4121 53.9707 main 581 581 O____P___OO___ jtwc_sh SH241958 -27.0000 53.5000 -1 -24.6482 55.3828 99 -27.0000 53.5000 TC 65 -27.0000 53.5000 4 13 174
1958073S12060 1958 22 SI MM NOT_NAMED 1958-03-20 21:00:00 TS -27.0855 54.0560 main 654 654 P____P___PP___ SH241958 -27.7924 53.5554 -1 -24.9666 55.5237 99 -27.7924 53.5554 TC 65 -27.7906 53.5896 4 15 175
1958073S12060 1958 22 SI MM NOT_NAMED 1958-03-21 00:00:00 TS -27.9372 54.1081 main 741 741 O____P___OP___ jtwc_sh SH241958 -28.6000 53.7000 -1 -25.2804 55.6758 99 -28.6000 53.7000 TC 65 -28.6040 53.7486 4 18 175
1958073S12060 1958 22 SI MM NOT_NAMED 1958-03-21 03:00:00 TS -28.8274 54.2273 main 821 821 P____P___PP___ SH241958 -29.3674 53.9472 -1 -25.5910 55.8357 99 -29.3674 53.9472 TC 65 -29.3655 53.9834 4 18 171
1958073S12060 1958 22 SI MM NOT_NAMED 1958-03-21 06:00:00 TS -29.6846 54.4308 reunion main 890 890 O____O___OO___ jtwc_sh SH241958 -30.0000 54.3000 -1 -25.9000 56.0000 99 9.90000 -30.0000 54.3000 TC 65 -30.0000 54.3000 4 17 165
1958073S12060 1958 22 SI MM NOT_NAMED 1958-03-21 09:00:00 TS -30.4274 54.7137 main 959 959 P________PP___ SH241958 -30.4249 54.7203 -1 99 -30.4249 54.7203 TC 65 -30.4324 54.7005 4 12 147
1958073S12060 1958 22 SI MM NOT_NAMED 1958-03-21 12:00:00 TS -30.7102 55.1919 main 1018 1018 O________OP___ jtwc_sh SH241958 -30.7000 55.2000 -1 99 -30.7000 55.2000 TC 65 -30.7307 55.1758 4 10 121
1958073S12060 1958 22 SI MM NOT_NAMED 1958-03-21 15:00:00 TS -30.9328 55.6963 main 1061 1061 P________PP___ SH241958 -30.9300 55.7003 -1 99 -30.9300 55.7003 TC 65 -30.9385 55.6881 4 9 114
1958073S12060 1958 22 SI MM NOT_NAMED 1958-03-21 18:00:00 TS -31.1000 56.2000 main 1085 1085 O________OO___ jtwc_sh SH241958 -31.1000 56.2000 -1 99 -31.1000 56.2000 TC 65 -31.1000 56.2000 4 9 111
1958073S12060 1958 22 SI MM NOT_NAMED 1958-03-21 21:00:00 TS -31.2556 56.6659 main 1111 1111 P________PP___ SH241958 -31.2573 56.6578 -1 99 -31.2573 56.6578 TC 50 -31.2522 56.6821 4 8 111
1958073S12060 1958 22 SI MM NOT_NAMED 1958-03-22 00:00:00 TS -31.4009 57.1121 main 1126 1126 O________OP___ jtwc_sh SH241958 -31.4000 57.1000 -1 99 -31.4000 57.1000 TC 35 -31.4028 57.1364 4 8 111
1958073S12060 1958 22 SI MM NOT_NAMED 1958-03-22 03:00:00 TS -31.5493 57.5556 main 1145 1145 P________PP___ SH241958 -31.5479 57.5471 -1 99 -31.5479 57.5471 TC 35 -31.5521 57.5724 4 8 112
1958073S12060 1958 22 SI MM NOT_NAMED 1958-03-22 06:00:00 TS -31.7000 58.0000 main 1174 O________OO___ jtwc_sh SH241958 -31.7000 58.0000 -1 -31.7000 58.0000 TC 35 -31.7000 58.0000 2 8 112

About IBTrACS Database

This database is a web-friendly format of International Best Track Archive for Climate Stewardship (IBTrACS), a global best track data archive curated by NOAA dating back to 1842.

Updated: 2021-11-26